createdAt,value
2022-11-25T00:01:23.184Z,60.70
2022-11-25T00:03:52.048Z,58.40
2022-11-25T00:06:22.211Z,62.50
2022-11-25T00:08:52.001Z,57.90
2022-11-25T00:11:22.289Z,55.90
2022-11-25T00:13:50.621Z,54.40
2022-11-25T00:16:21.620Z,53.00
2022-11-25T00:18:51.894Z,51.50
2022-11-25T00:21:21.677Z,50.00
2022-11-25T00:23:53.249Z,48.10
2022-11-25T00:26:23.405Z,49.50
2022-11-25T00:28:52.110Z,47.10
2022-11-25T00:31:22.160Z,45.80
2022-11-25T00:33:50.632Z,46.40
2022-11-25T00:36:23.342Z,45.50
2022-11-25T00:38:54.681Z,45.50
2022-11-25T00:41:42.186Z,44.60
2022-11-25T00:44:29.203Z,45.10
2022-11-25T00:46:57.364Z,44.90
2022-11-25T00:49:25.791Z,46.80
2022-11-25T00:51:54.840Z,48.20
2022-11-25T00:54:23.082Z,48.30
2022-11-25T00:56:52.948Z,48.70
2022-11-25T00:59:21.038Z,49.50
2022-11-25T01:01:49.747Z,50.50
2022-11-25T01:04:18.228Z,51.20
2022-11-25T01:06:46.306Z,49.20
2022-11-25T01:09:14.814Z,52.60
2022-11-25T01:11:43.108Z,53.60
2022-11-25T01:14:12.907Z,53.70
2022-11-25T01:16:41.352Z,54.10
2022-11-25T01:19:09.729Z,56.70
2022-11-25T01:21:38.558Z,60.30
2022-11-25T01:24:07.959Z,63.20
2022-11-25T01:26:37.470Z,64.30
2022-11-25T01:29:06.274Z,67.40
2022-11-25T01:31:37.898Z,64.50
2022-11-25T01:34:08.027Z,63.40
2022-11-25T01:36:36.121Z,65.80
2022-11-25T01:39:05.665Z,69.70
2022-11-25T01:41:35.005Z,70.30
2022-11-25T01:44:06.119Z,72.10
2022-11-25T01:46:44.984Z,76.50
2022-11-25T01:49:17.437Z,85.40
2022-11-25T01:51:51.552Z,90.00
2022-11-25T01:54:23.983Z,90.50
2022-11-25T01:56:55.999Z,91.70
2022-11-25T01:59:24.495Z,90.90
2022-11-25T02:01:54.676Z,85.30
2022-11-25T02:04:27.024Z,84.90
2022-11-25T02:07:03.030Z,85.90
2022-11-25T02:09:32.116Z,88.20
2022-11-25T02:12:02.140Z,91.10
2022-11-25T02:14:30.205Z,92.00
2022-11-25T02:17:01.794Z,92.30
2022-11-25T02:19:41.399Z,91.70
2022-11-25T02:22:12.431Z,90.90
2022-11-25T02:24:46.057Z,90.80
2022-11-25T02:27:15.503Z,91.60
2022-11-25T02:29:44.844Z,92.90
2022-11-25T02:32:13.176Z,95.50
2022-11-25T02:34:47.887Z,95.70
2022-11-25T02:37:18.600Z,95.70
2022-11-25T02:39:48.701Z,95.50
2022-11-25T02:42:21.215Z,95.20
2022-11-25T02:44:49.623Z,93.30
2022-11-25T02:47:18.305Z,92.70
2022-11-25T02:49:46.353Z,93.20
2022-11-25T02:52:14.795Z,93.80
2022-11-25T02:54:43.208Z,94.10
2022-11-25T02:57:11.276Z,95.40
2022-11-25T02:59:40.771Z,96.80
2022-11-25T03:02:08.718Z,96.80
2022-11-25T03:04:37.081Z,97.10
2022-11-25T03:07:05.260Z,96.90
2022-11-25T03:09:33.271Z,96.60
2022-11-25T03:12:18.643Z,96.40
2022-11-25T03:14:48.182Z,97.00
2022-11-25T03:17:16.101Z,97.90
2022-11-25T03:19:44.151Z,98.20
2022-11-25T03:22:12.249Z,99.20
2022-11-25T03:24:40.297Z,99.60
2022-11-25T03:27:08.617Z,99.50
2022-11-25T03:29:36.661Z,98.80
2022-11-25T03:32:09.526Z,98.90
2022-11-25T03:34:38.647Z,99.30
2022-11-25T03:37:07.416Z,99.90
2022-11-25T03:39:35.848Z,99.90
2022-11-25T03:42:03.956Z,99.90
2022-11-25T03:44:32.072Z,99.90
2022-11-25T03:47:00.225Z,99.90
2022-11-25T03:49:29.733Z,99.90
2022-11-25T03:51:57.615Z,99.90
2022-11-25T03:54:25.935Z,99.90
2022-11-25T03:56:54.189Z,99.90
2022-11-25T03:59:22.362Z,99.90
2022-11-25T04:01:50.856Z,99.90
2022-11-25T04:04:18.970Z,99.90
2022-11-25T04:06:48.431Z,99.90
2022-11-25T04:09:16.499Z,99.90
2022-11-25T04:12:01.936Z,99.90
2022-11-25T04:14:31.433Z,99.90
2022-11-25T04:16:59.527Z,99.90
2022-11-25T04:19:27.770Z,99.40
2022-11-25T04:21:59.631Z,99.00
2022-11-25T04:24:28.054Z,98.80
2022-11-25T04:26:56.434Z,99.20
2022-11-25T04:29:25.023Z,99.50
2022-11-25T04:31:53.100Z,99.90
2022-11-25T04:34:21.159Z,99.90
2022-11-25T04:36:49.363Z,99.90
2022-11-25T04:39:19.334Z,99.90
2022-11-25T04:41:47.439Z,99.90
2022-11-25T04:44:15.639Z,99.90
2022-11-25T04:46:44.440Z,99.90
2022-11-25T04:49:12.695Z,99.90
2022-11-25T04:51:40.795Z,99.90
2022-11-25T04:54:12.148Z,99.90
2022-11-25T04:56:44.125Z,99.90
2022-11-25T04:59:31.969Z,99.90
2022-11-25T05:02:00.486Z,99.90
2022-11-25T05:04:28.631Z,99.90
2022-11-25T05:06:56.737Z,99.90
2022-11-25T05:09:24.776Z,99.90
2022-11-25T05:11:54.223Z,99.90
2022-11-25T05:14:22.618Z,99.90
2022-11-25T05:16:50.821Z,99.90
2022-11-25T05:19:19.050Z,99.90
2022-11-25T05:21:47.127Z,99.90
2022-11-25T05:24:15.193Z,99.90
2022-11-25T05:26:43.275Z,99.90
2022-11-25T05:29:12.834Z,99.90
2022-11-25T05:31:41.058Z,99.90
2022-11-25T05:34:09.141Z,99.90
2022-11-25T05:36:37.229Z,99.90
2022-11-25T05:39:05.775Z,99.90
2022-11-25T05:41:34.187Z,99.90
2022-11-25T05:44:02.256Z,99.90
2022-11-25T05:46:31.922Z,99.90
2022-11-25T05:49:00.295Z,99.90
2022-11-25T05:51:29.298Z,99.90
2022-11-25T05:53:58.176Z,99.90
2022-11-25T05:56:26.260Z,99.90
2022-11-25T05:58:55.128Z,99.90
2022-11-25T06:01:23.838Z,99.90
2022-11-25T06:03:53.400Z,99.90
2022-11-25T06:06:22.225Z,99.90
2022-11-25T06:08:50.666Z,99.90
2022-11-25T06:11:19.376Z,99.90
2022-11-25T06:13:47.446Z,99.90
2022-11-25T06:16:17.798Z,99.90
2022-11-25T06:18:45.928Z,99.90
2022-11-25T06:21:16.111Z,99.90
2022-11-25T06:23:45.249Z,99.90
2022-11-25T06:26:16.969Z,99.90
2022-11-25T06:28:45.457Z,99.90
2022-11-25T06:31:16.030Z,99.90
2022-11-25T06:33:47.045Z,99.90
2022-11-25T06:36:17.903Z,99.90
2022-11-25T06:38:46.260Z,99.90
2022-11-25T06:41:14.852Z,99.90
2022-11-25T06:43:42.978Z,99.90
2022-11-25T06:46:12.595Z,99.90
2022-11-25T06:48:40.964Z,99.90
2022-11-25T06:51:11.425Z,99.90
2022-11-25T06:53:41.184Z,99.90
2022-11-25T06:56:13.238Z,99.90
2022-11-25T06:58:42.384Z,99.90
2022-11-25T07:01:14.588Z,99.90
2022-11-25T07:03:44.184Z,99.90
2022-11-25T07:06:12.813Z,99.90
2022-11-25T07:08:42.958Z,99.90
2022-11-25T07:11:17.105Z,99.90
2022-11-25T07:13:45.498Z,99.90
2022-11-25T07:16:14.027Z,99.90
2022-11-25T07:18:43.032Z,99.90
2022-11-25T07:21:12.817Z,99.90
2022-11-25T07:23:43.135Z,99.90
2022-11-25T07:26:13.098Z,99.90
2022-11-25T07:28:42.889Z,99.90
2022-11-25T07:31:23.803Z,99.90
2022-11-25T07:33:54.815Z,99.90
2022-11-25T07:36:22.854Z,99.90
2022-11-25T07:38:52.466Z,99.90
2022-11-25T07:41:23.315Z,99.90
2022-11-25T07:43:53.952Z,99.90
2022-11-25T07:46:26.998Z,99.90
2022-11-25T07:48:57.476Z,99.90
2022-11-25T07:51:28.624Z,99.90
2022-11-25T07:54:00.497Z,99.90
2022-11-25T07:56:30.015Z,99.90
2022-11-25T07:58:58.261Z,99.90
2022-11-25T08:01:26.543Z,99.90
2022-11-25T08:03:56.055Z,99.90
2022-11-25T08:06:25.911Z,99.90
2022-11-25T08:08:55.686Z,99.90
2022-11-25T08:11:26.683Z,99.90
2022-11-25T08:13:55.324Z,99.90
2022-11-25T08:16:26.377Z,99.90
2022-11-25T08:18:55.566Z,99.90
2022-11-25T08:21:24.144Z,99.90
2022-11-25T08:23:52.931Z,99.90
2022-11-25T08:26:23.426Z,99.90
2022-11-25T08:28:53.112Z,99.90
2022-11-25T08:31:22.882Z,99.90
2022-11-25T08:33:51.970Z,99.90
2022-11-25T08:36:21.447Z,99.90
2022-11-25T08:38:52.109Z,99.90
2022-11-25T08:41:25.156Z,99.90
2022-11-25T08:43:54.708Z,99.90
2022-11-25T08:46:24.141Z,99.90
2022-11-25T08:48:52.249Z,99.90
2022-11-25T08:51:23.393Z,99.90
2022-11-25T08:53:52.220Z,99.90
2022-11-25T08:56:25.968Z,99.90
2022-11-25T08:58:56.365Z,99.90
2022-11-25T09:01:25.974Z,99.90
2022-11-25T09:03:55.368Z,99.90
2022-11-25T09:06:24.003Z,99.90
2022-11-25T09:08:52.241Z,99.90
2022-11-25T09:11:20.351Z,99.90
2022-11-25T09:13:48.570Z,99.90
2022-11-25T09:16:18.166Z,99.10
2022-11-25T09:18:49.873Z,98.80
2022-11-25T09:21:20.568Z,98.80
2022-11-25T09:23:51.536Z,99.00
2022-11-25T09:26:23.326Z,98.60
2022-11-25T09:28:51.802Z,96.10
2022-11-25T09:31:21.793Z,95.10
2022-11-25T09:33:50.738Z,95.60
2022-11-25T09:36:20.273Z,95.30
2022-11-25T09:38:48.692Z,93.10
2022-11-25T09:42:01.405Z,92.80
2022-11-25T09:44:59.079Z,93.40
2022-11-25T09:47:43.609Z,90.50
2022-11-25T09:50:21.775Z,85.00
2022-11-25T09:52:59.898Z,79.30
2022-11-25T09:55:34.680Z,68.00
2022-11-25T09:58:15.433Z,72.10
2022-11-25T10:00:47.078Z,61.60
2022-11-25T10:03:24.934Z,59.00
2022-11-25T10:06:04.358Z,58.80
2022-11-25T10:08:36.601Z,78.70
2022-11-25T10:11:17.258Z,63.70
2022-11-25T10:13:52.575Z,61.60
2022-11-25T10:16:31.443Z,32.80
2022-11-25T10:19:06.029Z,1.00
2022-11-25T10:21:34.170Z,1.00
2022-11-25T10:24:04.077Z,96.40
2022-11-25T10:26:40.856Z,99.90
2022-11-25T10:29:24.296Z,99.50
2022-11-25T10:32:02.504Z,95.50
2022-11-25T10:34:38.328Z,91.60
2022-11-25T10:37:13.969Z,80.40
2022-11-25T10:39:42.027Z,73.70
2022-11-25T10:42:17.243Z,65.80
2022-11-25T10:44:45.392Z,59.60
2022-11-25T10:47:35.913Z,55.40
2022-11-25T10:50:15.419Z,54.10
2022-11-25T10:52:51.668Z,50.10
2022-11-25T10:55:21.695Z,46.30
2022-11-25T10:57:50.042Z,46.70
2022-11-25T11:00:31.655Z,46.80
2022-11-25T11:03:02.409Z,43.00
2022-11-25T11:05:32.484Z,43.10
2022-11-25T11:08:22.235Z,42.60
2022-11-25T11:11:15.150Z,37.60
2022-11-25T11:13:43.436Z,38.40
2022-11-25T11:16:30.547Z,38.70
2022-11-25T11:18:59.232Z,35.80
2022-11-25T11:21:34.167Z,39.30
2022-11-25T11:24:03.292Z,37.70
2022-11-25T11:26:33.334Z,35.70
2022-11-25T11:29:07.368Z,33.30
2022-11-25T11:31:45.174Z,35.20
2022-11-25T11:34:49.018Z,36.50
2022-11-25T11:37:41.749Z,34.10
2022-11-25T11:40:26.871Z,32.60
2022-11-25T11:43:07.737Z,33.80
2022-11-25T11:45:48.189Z,32.70
2022-11-25T11:48:26.301Z,32.00
2022-11-25T11:51:03.158Z,31.60
2022-11-25T11:53:44.394Z,30.50
2022-11-25T11:56:34.893Z,35.20
2022-11-25T11:59:28.897Z,34.40
2022-11-25T12:02:16.565Z,34.50
2022-11-25T12:04:47.508Z,31.10
2022-11-25T12:07:23.605Z,35.90
2022-11-25T12:09:57.840Z,40.00
2022-11-25T12:12:34.793Z,42.00
2022-11-25T12:15:09.992Z,44.80
2022-11-25T12:17:45.286Z,47.20
2022-11-25T12:20:19.622Z,48.80
2022-11-25T12:22:54.775Z,50.70
2022-11-25T12:25:29.025Z,52.10
2022-11-25T12:28:01.850Z,52.70
2022-11-25T12:30:37.538Z,53.90
2022-11-25T12:33:11.763Z,54.40
2022-11-25T12:35:50.222Z,54.50
2022-11-25T12:38:26.397Z,55.40
2022-11-25T12:41:03.391Z,57.70
2022-11-25T12:43:42.305Z,58.70
2022-11-25T12:46:19.837Z,60.30
2022-11-25T12:48:48.144Z,62.90
2022-11-25T12:51:28.140Z,63.50
2022-11-25T12:54:10.139Z,54.00
2022-11-25T12:56:56.516Z,1.00
2022-11-25T12:59:44.386Z,1.00
2022-11-25T13:02:45.924Z,99.90
2022-11-25T13:05:45.629Z,99.90
2022-11-25T13:08:28.582Z,99.90
2022-11-25T13:11:26.349Z,99.90
2022-11-25T13:14:04.846Z,99.90
2022-11-25T13:16:34.195Z,99.90
2022-11-25T13:19:02.614Z,99.90
2022-11-25T13:21:30.728Z,99.90
2022-11-25T13:23:59.661Z,99.90
2022-11-25T13:26:48.832Z,99.90
2022-11-25T13:30:00.366Z,99.90
2022-11-25T13:32:33.213Z,99.90
2022-11-25T13:35:32.982Z,99.90
2022-11-25T13:38:01.266Z,1.00
2022-11-25T13:40:38.063Z,99.90
2022-11-25T13:43:06.875Z,99.90
2022-11-25T13:45:38.593Z,1.00
2022-11-25T13:48:16.964Z,1.00
2022-11-25T13:51:10.212Z,1.00
2022-11-25T13:53:36.088Z,1.00
2022-11-25T13:56:15.719Z,1.00
2022-11-25T13:59:20.743Z,1.00
2022-11-25T14:01:55.962Z,1.00
2022-11-25T14:04:42.312Z,1.00
2022-11-25T14:07:26.196Z,1.00
2022-11-25T14:10:10.476Z,1.00
2022-11-25T14:13:11.048Z,1.00
2022-11-25T14:15:51.681Z,1.00
2022-11-25T14:19:16.818Z,1.00
2022-11-25T14:22:05.401Z,1.00
2022-11-25T14:24:39.673Z,1.00
2022-11-25T14:27:16.186Z,1.00
2022-11-25T14:29:48.068Z,1.00
2022-11-25T14:32:21.307Z,1.00
2022-11-25T14:34:51.337Z,1.00
2022-11-25T14:37:24.885Z,1.00
2022-11-25T14:39:57.760Z,1.00
2022-11-25T14:42:29.086Z,1.00
2022-11-25T14:44:59.270Z,1.00
2022-11-25T14:47:31.386Z,1.00
2022-11-25T14:52:51.584Z,1.00
2022-11-25T14:55:28.862Z,1.00
2022-11-25T14:57:57.356Z,1.00
2022-11-25T15:00:25.734Z,1.00
2022-11-25T15:02:56.836Z,1.00
2022-11-25T15:05:27.268Z,1.00
2022-11-25T15:08:00.806Z,1.00
2022-11-25T15:10:42.522Z,1.00
2022-11-25T15:13:24.957Z,1.00
2022-11-25T15:15:55.626Z,1.00
2022-11-25T15:18:26.062Z,1.00
2022-11-25T15:20:59.572Z,1.00
2022-11-25T15:23:34.598Z,1.00
2022-11-25T15:26:03.844Z,1.00
2022-11-25T15:28:36.794Z,1.00
2022-11-25T15:31:10.442Z,1.00
2022-11-25T15:33:39.769Z,1.00
2022-11-25T15:36:08.472Z,1.00
2022-11-25T15:38:41.075Z,1.00
2022-11-25T15:41:19.019Z,1.00
2022-11-25T15:43:49.457Z,1.00
2022-11-25T15:46:18.536Z,1.00
2022-11-25T15:48:48.726Z,1.00
2022-11-25T15:51:29.005Z,1.00
2022-11-25T15:54:04.128Z,1.00
2022-11-25T15:56:35.094Z,10.40
2022-11-25T15:59:03.172Z,9.70
2022-11-25T16:01:31.625Z,9.20
2022-11-25T16:04:20.634Z,9.40
2022-11-25T16:06:56.404Z,18.10
2022-11-25T16:09:31.239Z,16.20
2022-11-25T16:12:07.090Z,9.80
2022-11-25T16:14:37.896Z,19.90
2022-11-25T16:17:12.567Z,19.00
2022-11-25T16:19:43.242Z,19.20
2022-11-25T16:22:16.222Z,24.40
2022-11-25T16:24:51.369Z,25.00
2022-11-25T16:27:22.603Z,23.70
2022-11-25T16:29:54.127Z,25.10
2022-11-25T16:32:24.247Z,20.50
2022-11-25T16:34:52.760Z,20.00
2022-11-25T16:37:21.080Z,14.50
2022-11-25T16:39:50.561Z,18.30
2022-11-25T16:42:20.686Z,17.70
2022-11-25T16:44:50.280Z,31.90
2022-11-25T16:47:19.063Z,29.40
2022-11-25T16:49:47.536Z,33.90
2022-11-25T16:52:15.989Z,36.70
2022-11-25T16:54:44.159Z,44.80
2022-11-25T16:57:19.987Z,34.00
2022-11-25T16:59:53.262Z,39.80
2022-11-25T17:02:25.552Z,53.30
2022-11-25T17:04:53.792Z,48.60
2022-11-25T17:07:38.411Z,46.40
2022-11-25T17:10:08.764Z,44.40
2022-11-25T17:12:39.547Z,47.50
2022-11-25T17:15:14.230Z,54.20
2022-11-25T17:17:42.644Z,51.70
2022-11-25T17:20:16.858Z,52.10
2022-11-25T17:22:45.440Z,51.40
2022-11-25T17:25:13.945Z,53.10
2022-11-25T17:27:46.091Z,56.40
2022-11-25T17:30:19.236Z,66.40
2022-11-25T17:32:48.272Z,62.70
2022-11-25T17:35:19.649Z,65.40
2022-11-25T17:37:48.375Z,65.70
2022-11-25T17:40:17.522Z,63.60
2022-11-25T17:42:49.900Z,58.80
2022-11-25T17:45:20.304Z,58.30
2022-11-25T17:47:48.824Z,57.50
2022-11-25T17:50:19.707Z,53.90
2022-11-25T17:52:48.161Z,60.20
2022-11-25T17:55:19.610Z,51.70
2022-11-25T17:57:49.538Z,58.70
2022-11-25T18:00:21.143Z,57.50
2022-11-25T18:02:50.043Z,57.10
2022-11-25T18:05:21.372Z,57.90
2022-11-25T18:07:49.924Z,57.50
2022-11-25T18:10:20.154Z,55.80
2022-11-25T18:12:53.362Z,58.40
2022-11-25T18:15:23.951Z,56.00
2022-11-25T18:18:01.045Z,53.70
2022-11-25T18:20:32.304Z,53.10
2022-11-25T18:23:01.390Z,55.80
2022-11-25T18:25:32.337Z,57.40
2022-11-25T18:28:05.129Z,57.00
2022-11-25T18:30:35.248Z,53.10
2022-11-25T18:33:05.606Z,49.40
2022-11-25T18:35:36.854Z,64.80
2022-11-25T18:38:05.318Z,56.70
2022-11-25T18:40:34.233Z,65.30
2022-11-25T18:43:05.373Z,71.10
2022-11-25T18:45:36.567Z,65.70
2022-11-25T18:48:14.493Z,59.90
2022-11-25T18:50:43.290Z,59.50
2022-11-25T18:53:11.959Z,62.20
2022-11-25T18:55:40.495Z,61.30
2022-11-25T18:58:16.834Z,61.70
2022-11-25T19:00:48.365Z,71.80
2022-11-25T19:03:19.927Z,77.00
2022-11-25T19:05:48.891Z,72.40
2022-11-25T19:08:18.441Z,67.40
2022-11-25T19:10:47.400Z,68.10
2022-11-25T19:13:20.314Z,69.80
2022-11-25T19:15:48.797Z,71.80
2022-11-25T19:18:24.171Z,73.70
2022-11-25T19:20:52.411Z,73.10
2022-11-25T19:23:25.263Z,73.40
2022-11-25T19:25:54.918Z,80.70
2022-11-25T19:28:24.987Z,83.20
2022-11-25T19:30:57.817Z,81.10
2022-11-25T19:33:29.689Z,84.00
2022-11-25T19:35:58.447Z,82.30
2022-11-25T19:38:27.181Z,85.60
2022-11-25T19:40:56.431Z,82.80
2022-11-25T19:43:27.233Z,80.50
2022-11-25T19:45:56.553Z,84.70
2022-11-25T19:48:28.285Z,85.00
2022-11-25T19:50:59.675Z,84.30
2022-11-25T19:53:33.587Z,84.90
2022-11-25T19:56:04.382Z,82.10
2022-11-25T19:58:34.512Z,83.80
2022-11-25T20:01:03.115Z,84.70
2022-11-25T20:03:32.836Z,85.10
2022-11-25T20:06:00.939Z,86.40
2022-11-25T20:08:29.715Z,92.50
2022-11-25T20:10:58.524Z,93.20
2022-11-25T20:13:26.888Z,92.00
2022-11-25T20:15:57.129Z,86.10
2022-11-25T20:18:27.178Z,86.30
2022-11-25T20:20:59.932Z,89.30
2022-11-25T20:23:30.669Z,88.90
2022-11-25T20:25:59.543Z,86.80
2022-11-25T20:28:30.011Z,86.40
2022-11-25T20:31:00.042Z,87.00
2022-11-25T20:33:28.892Z,86.70
2022-11-25T20:36:04.859Z,82.50
2022-11-25T20:38:35.306Z,86.40
2022-11-25T20:41:04.231Z,87.10
2022-11-25T20:43:34.313Z,87.70
2022-11-25T20:46:05.543Z,89.00
2022-11-25T20:48:35.235Z,89.20
2022-11-25T20:51:03.987Z,90.00
2022-11-25T20:53:32.383Z,91.00
2022-11-25T20:56:00.908Z,90.20
2022-11-25T20:58:31.848Z,90.70
2022-11-25T21:01:00.572Z,90.10
2022-11-25T21:03:30.106Z,87.30
2022-11-25T21:05:58.851Z,90.20
2022-11-25T21:08:30.802Z,89.90
2022-11-25T21:11:00.103Z,82.90
2022-11-25T21:13:29.985Z,84.40
2022-11-25T21:15:58.171Z,86.20
2022-11-25T21:18:27.130Z,84.20
2022-11-25T21:20:57.990Z,84.50
2022-11-25T21:23:29.089Z,83.20
2022-11-25T21:26:06.793Z,84.00
2022-11-25T21:28:38.729Z,84.00
2022-11-25T21:31:11.253Z,88.30
2022-11-25T21:33:39.654Z,88.10
2022-11-25T21:36:15.687Z,86.40
2022-11-25T21:38:44.410Z,85.90
2022-11-25T21:41:13.195Z,89.80
2022-11-25T21:43:44.538Z,89.80
2022-11-25T21:46:15.671Z,89.30
2022-11-25T21:48:43.973Z,90.40
2022-11-25T21:51:15.927Z,91.20
2022-11-25T21:53:44.032Z,89.80
2022-11-25T21:56:19.046Z,90.60
2022-11-25T21:58:47.548Z,90.20
2022-11-25T22:01:16.589Z,90.00
2022-11-25T22:03:44.745Z,90.70
2022-11-25T22:06:20.696Z,92.80
2022-11-25T22:08:49.050Z,92.50
2022-11-25T22:11:19.523Z,92.20
2022-11-25T22:13:49.447Z,91.90
2022-11-25T22:16:22.503Z,91.10
2022-11-25T22:18:50.722Z,90.90
2022-11-25T22:21:20.272Z,92.20
2022-11-25T22:23:48.194Z,92.80
2022-11-25T22:26:22.145Z,94.60
2022-11-25T22:28:52.780Z,93.70
2022-11-25T22:31:21.668Z,94.00
2022-11-25T22:33:50.814Z,95.40
2022-11-25T22:36:35.232Z,95.80
2022-11-25T22:39:14.385Z,94.60
2022-11-25T22:41:43.451Z,95.00
2022-11-25T22:44:18.888Z,94.70
2022-11-25T22:46:47.600Z,93.90
2022-11-25T22:49:29.255Z,95.40
2022-11-25T22:51:58.951Z,95.90
2022-11-25T22:54:27.242Z,96.00
2022-11-25T22:56:56.680Z,97.30
2022-11-25T22:59:24.777Z,97.30
2022-11-25T23:01:53.337Z,97.60
2022-11-25T23:04:22.020Z,96.50
2022-11-25T23:06:50.285Z,99.20
2022-11-25T23:09:20.770Z,99.10
2022-11-25T23:11:49.579Z,97.80
2022-11-25T23:14:17.711Z,98.30
2022-11-25T23:16:46.289Z,98.10
2022-11-25T23:19:16.988Z,97.50
2022-11-25T23:21:46.821Z,97.20
2022-11-25T23:24:17.236Z,97.30
2022-11-25T23:26:46.913Z,98.00
2022-11-25T23:29:14.974Z,97.80
2022-11-25T23:31:43.578Z,97.60
2022-11-25T23:34:13.754Z,97.60
2022-11-25T23:36:45.956Z,97.30
2022-11-25T23:39:20.357Z,96.80
2022-11-25T23:41:50.439Z,96.40
2022-11-25T23:44:23.820Z,97.00
2022-11-25T23:46:52.911Z,96.50
2022-11-25T23:49:27.103Z,96.20
2022-11-25T23:52:01.112Z,96.90
2022-11-25T23:54:40.269Z,95.60
2022-11-25T23:57:15.255Z,95.60
2022-11-25T23:59:44.239Z,95.60
